sensor_id;sensor_type;location;lat;lon;timestamp;P1;durP1;ratioP1;P2;durP2;ratioP2
51872;SDS011;52863;52.504;13.480;2022-09-30T00:00:54;16.03;;;12.03;;
51872;SDS011;52863;52.504;13.480;2022-09-30T00:03:22;17.47;;;12.07;;
51872;SDS011;52863;52.504;13.480;2022-09-30T00:05:54;15.40;;;12.97;;
51872;SDS011;52863;52.504;13.480;2022-09-30T00:08:21;18.77;;;12.43;;
51872;SDS011;52863;52.504;13.480;2022-09-30T00:10:56;18.10;;;12.43;;
51872;SDS011;52863;52.504;13.480;2022-09-30T00:13:24;17.10;;;11.97;;
51872;SDS011;52863;52.504;13.480;2022-09-30T00:15:51;17.13;;;12.60;;
51872;SDS011;52863;52.504;13.480;2022-09-30T00:18:18;14.43;;;11.67;;
51872;SDS011;52863;52.504;13.480;2022-09-30T00:20:45;15.10;;;11.67;;
51872;SDS011;52863;52.504;13.480;2022-09-30T00:23:12;15.37;;;12.97;;
51872;SDS011;52863;52.504;13.480;2022-09-30T00:25:39;17.57;;;12.10;;
51872;SDS011;52863;52.504;13.480;2022-09-30T00:28:06;15.13;;;12.33;;
51872;SDS011;52863;52.504;13.480;2022-09-30T00:30:33;14.87;;;11.60;;
51872;SDS011;52863;52.504;13.480;2022-09-30T00:33:00;14.13;;;11.70;;
51872;SDS011;52863;52.504;13.480;2022-09-30T00:35:27;14.77;;;12.23;;
51872;SDS011;52863;52.504;13.480;2022-09-30T00:37:55;16.13;;;12.27;;
51872;SDS011;52863;52.504;13.480;2022-09-30T00:40:21;14.33;;;12.03;;
51872;SDS011;52863;52.504;13.480;2022-09-30T00:42:48;15.57;;;11.93;;
51872;SDS011;52863;52.504;13.480;2022-09-30T00:45:15;17.23;;;12.73;;
51872;SDS011;52863;52.504;13.480;2022-09-30T00:47:47;14.67;;;11.67;;
51872;SDS011;52863;52.504;13.480;2022-09-30T00:50:20;15.60;;;11.87;;
51872;SDS011;52863;52.504;13.480;2022-09-30T00:52:53;15.23;;;11.37;;
51872;SDS011;52863;52.504;13.480;2022-09-30T00:55:26;14.97;;;11.70;;
51872;SDS011;52863;52.504;13.480;2022-09-30T00:57:58;14.50;;;11.57;;
51872;SDS011;52863;52.504;13.480;2022-09-30T01:00:26;15.07;;;11.57;;
51872;SDS011;52863;52.504;13.480;2022-09-30T01:02:53;15.17;;;11.73;;
51872;SDS011;52863;52.504;13.480;2022-09-30T01:05:20;15.50;;;11.30;;
51872;SDS011;52863;52.504;13.480;2022-09-30T01:07:49;14.37;;;11.93;;
51872;SDS011;52863;52.504;13.480;2022-09-30T01:10:17;17.40;;;11.93;;
51872;SDS011;52863;52.504;13.480;2022-09-30T01:12:44;15.17;;;10.90;;
51872;SDS011;52863;52.504;13.480;2022-09-30T01:15:11;13.13;;;10.90;;
51872;SDS011;52863;52.504;13.480;2022-09-30T01:17:41;15.17;;;11.57;;
51872;SDS011;52863;52.504;13.480;2022-09-30T01:20:24;14.80;;;11.27;;
51872;SDS011;52863;52.504;13.480;2022-09-30T01:23:17;14.67;;;11.67;;
51872;SDS011;52863;52.504;13.480;2022-09-30T01:26:36;16.63;;;12.10;;
51872;SDS011;52863;52.504;13.480;2022-09-30T01:32:48;14.07;;;10.83;;
51872;SDS011;52863;52.504;13.480;2022-09-30T01:35:38;13.77;;;11.17;;
51872;SDS011;52863;52.504;13.480;2022-09-30T01:38:23;16.23;;;12.10;;
51872;SDS011;52863;52.504;13.480;2022-09-30T01:40:57;14.63;;;11.67;;
51872;SDS011;52863;52.504;13.480;2022-09-30T01:43:29;15.53;;;11.90;;
51872;SDS011;52863;52.504;13.480;2022-09-30T01:46:04;18.03;;;11.97;;
51872;SDS011;52863;52.504;13.480;2022-09-30T01:48:40;15.90;;;11.50;;
51872;SDS011;52863;52.504;13.480;2022-09-30T01:51:16;18.80;;;13.03;;
51872;SDS011;52863;52.504;13.480;2022-09-30T01:53:48;17.70;;;12.80;;
51872;SDS011;52863;52.504;13.480;2022-09-30T01:56:21;15.03;;;11.37;;
51872;SDS011;52863;52.504;13.480;2022-09-30T01:58:51;16.13;;;11.90;;
51872;SDS011;52863;52.504;13.480;2022-09-30T02:01:23;17.23;;;12.70;;
51872;SDS011;52863;52.504;13.480;2022-09-30T02:03:57;13.83;;;11.33;;
51872;SDS011;52863;52.504;13.480;2022-09-30T02:06:25;16.73;;;12.63;;
51872;SDS011;52863;52.504;13.480;2022-09-30T02:08:57;17.30;;;11.93;;
51872;SDS011;52863;52.504;13.480;2022-09-30T02:11:28;14.27;;;10.73;;
51872;SDS011;52863;52.504;13.480;2022-09-30T02:13:59;17.60;;;11.97;;
51872;SDS011;52863;52.504;13.480;2022-09-30T02:16:31;16.70;;;11.77;;
51872;SDS011;52863;52.504;13.480;2022-09-30T02:19:07;18.90;;;12.10;;
51872;SDS011;52863;52.504;13.480;2022-09-30T02:21:39;17.83;;;12.73;;
51872;SDS011;52863;52.504;13.480;2022-09-30T02:24:08;15.07;;;11.57;;
51872;SDS011;52863;52.504;13.480;2022-09-30T02:26:38;16.80;;;12.30;;
51872;SDS011;52863;52.504;13.480;2022-09-30T02:29:08;16.20;;;11.37;;
51872;SDS011;52863;52.504;13.480;2022-09-30T02:31:40;16.67;;;11.63;;
51872;SDS011;52863;52.504;13.480;2022-09-30T02:34:10;15.27;;;12.17;;
51872;SDS011;52863;52.504;13.480;2022-09-30T02:36:40;17.90;;;12.47;;
51872;SDS011;52863;52.504;13.480;2022-09-30T02:39:12;14.43;;;11.80;;
51872;SDS011;52863;52.504;13.480;2022-09-30T02:41:46;15.53;;;10.57;;
51872;SDS011;52863;52.504;13.480;2022-09-30T02:44:17;19.50;;;13.17;;
51872;SDS011;52863;52.504;13.480;2022-09-30T02:46:46;17.27;;;13.03;;
51872;SDS011;52863;52.504;13.480;2022-09-30T02:49:23;18.53;;;13.13;;
51872;SDS011;52863;52.504;13.480;2022-09-30T02:52:01;18.50;;;12.67;;
51872;SDS011;52863;52.504;13.480;2022-09-30T02:54:40;19.10;;;13.17;;
51872;SDS011;52863;52.504;13.480;2022-09-30T02:57:16;20.80;;;13.93;;
51872;SDS011;52863;52.504;13.480;2022-09-30T02:59:48;18.57;;;13.77;;
51872;SDS011;52863;52.504;13.480;2022-09-30T03:02:16;14.50;;;11.30;;
51872;SDS011;52863;52.504;13.480;2022-09-30T03:04:44;15.63;;;11.20;;
51872;SDS011;52863;52.504;13.480;2022-09-30T03:07:11;20.07;;;13.67;;
51872;SDS011;52863;52.504;13.480;2022-09-30T03:09:39;18.73;;;12.10;;
51872;SDS011;52863;52.504;13.480;2022-09-30T03:12:09;17.10;;;11.73;;
51872;SDS011;52863;52.504;13.480;2022-09-30T03:14:52;17.90;;;12.87;;
51872;SDS011;52863;52.504;13.480;2022-09-30T03:20:44;19.23;;;13.33;;
51872;SDS011;52863;52.504;13.480;2022-09-30T03:26:03;20.03;;;12.77;;
51872;SDS011;52863;52.504;13.480;2022-09-30T03:28:43;18.30;;;12.73;;
51872;SDS011;52863;52.504;13.480;2022-09-30T03:31:18;16.43;;;12.13;;
51872;SDS011;52863;52.504;13.480;2022-09-30T03:33:49;17.33;;;12.53;;
51872;SDS011;52863;52.504;13.480;2022-09-30T03:36:23;17.77;;;12.60;;
51872;SDS011;52863;52.504;13.480;2022-09-30T03:38:55;23.50;;;12.47;;
51872;SDS011;52863;52.504;13.480;2022-09-30T03:41:30;19.23;;;13.10;;
51872;SDS011;52863;52.504;13.480;2022-09-30T03:44:00;20.93;;;14.50;;
51872;SDS011;52863;52.504;13.480;2022-09-30T03:46:36;18.60;;;13.13;;
51872;SDS011;52863;52.504;13.480;2022-09-30T03:49:08;19.03;;;13.07;;
51872;SDS011;52863;52.504;13.480;2022-09-30T03:51:39;23.53;;;14.33;;
51872;SDS011;52863;52.504;13.480;2022-09-30T03:54:06;18.00;;;12.83;;
51872;SDS011;52863;52.504;13.480;2022-09-30T03:56:34;19.00;;;13.20;;
51872;SDS011;52863;52.504;13.480;2022-09-30T03:59:02;18.93;;;13.17;;
51872;SDS011;52863;52.504;13.480;2022-09-30T04:01:29;15.03;;;11.73;;
51872;SDS011;52863;52.504;13.480;2022-09-30T04:03:56;17.47;;;12.20;;
51872;SDS011;52863;52.504;13.480;2022-09-30T04:06:23;20.17;;;13.40;;
51872;SDS011;52863;52.504;13.480;2022-09-30T04:08:51;18.30;;;13.30;;
51872;SDS011;52863;52.504;13.480;2022-09-30T04:11:18;20.50;;;13.33;;
51872;SDS011;52863;52.504;13.480;2022-09-30T04:13:45;19.77;;;13.93;;
51872;SDS011;52863;52.504;13.480;2022-09-30T04:16:12;20.47;;;14.67;;
51872;SDS011;52863;52.504;13.480;2022-09-30T04:18:39;23.97;;;15.73;;
51872;SDS011;52863;52.504;13.480;2022-09-30T04:21:06;22.13;;;14.93;;
51872;SDS011;52863;52.504;13.480;2022-09-30T04:23:34;20.57;;;14.40;;
51872;SDS011;52863;52.504;13.480;2022-09-30T04:26:01;21.50;;;14.23;;
51872;SDS011;52863;52.504;13.480;2022-09-30T04:28:28;21.67;;;13.57;;
51872;SDS011;52863;52.504;13.480;2022-09-30T04:30:57;18.77;;;13.90;;
51872;SDS011;52863;52.504;13.480;2022-09-30T04:33:24;22.87;;;14.50;;
51872;SDS011;52863;52.504;13.480;2022-09-30T04:35:52;19.17;;;13.77;;
51872;SDS011;52863;52.504;13.480;2022-09-30T04:38:19;19.80;;;12.77;;
51872;SDS011;52863;52.504;13.480;2022-09-30T04:40:46;19.93;;;14.07;;
51872;SDS011;52863;52.504;13.480;2022-09-30T04:43:14;21.43;;;15.37;;
51872;SDS011;52863;52.504;13.480;2022-09-30T04:45:42;21.20;;;13.30;;
51872;SDS011;52863;52.504;13.480;2022-09-30T04:48:09;24.07;;;14.23;;
51872;SDS011;52863;52.504;13.480;2022-09-30T04:50:36;20.63;;;14.37;;
51872;SDS011;52863;52.504;13.480;2022-09-30T04:53:03;20.50;;;14.00;;
51872;SDS011;52863;52.504;13.480;2022-09-30T04:55:30;18.97;;;13.17;;
51872;SDS011;52863;52.504;13.480;2022-09-30T04:57:57;21.20;;;14.13;;
51872;SDS011;52863;52.504;13.480;2022-09-30T05:00:25;18.87;;;13.37;;
51872;SDS011;52863;52.504;13.480;2022-09-30T05:02:52;18.17;;;13.67;;
51872;SDS011;52863;52.504;13.480;2022-09-30T05:05:19;18.63;;;13.87;;
51872;SDS011;52863;52.504;13.480;2022-09-30T05:07:46;21.00;;;13.13;;
51872;SDS011;52863;52.504;13.480;2022-09-30T05:10:13;21.37;;;13.53;;
51872;SDS011;52863;52.504;13.480;2022-09-30T05:12:40;20.73;;;13.47;;
51872;SDS011;52863;52.504;13.480;2022-09-30T05:15:08;20.43;;;13.50;;
51872;SDS011;52863;52.504;13.480;2022-09-30T05:17:36;17.73;;;13.10;;
51872;SDS011;52863;52.504;13.480;2022-09-30T05:20:03;20.63;;;12.50;;
51872;SDS011;52863;52.504;13.480;2022-09-30T05:22:35;19.50;;;12.63;;
51872;SDS011;52863;52.504;13.480;2022-09-30T05:25:03;16.83;;;11.97;;
51872;SDS011;52863;52.504;13.480;2022-09-30T05:27:30;17.30;;;12.40;;
51872;SDS011;52863;52.504;13.480;2022-09-30T05:29:57;18.93;;;13.33;;
51872;SDS011;52863;52.504;13.480;2022-09-30T05:32:24;20.37;;;13.13;;
51872;SDS011;52863;52.504;13.480;2022-09-30T05:34:51;17.53;;;12.47;;
51872;SDS011;52863;52.504;13.480;2022-09-30T05:37:19;19.90;;;12.30;;
51872;SDS011;52863;52.504;13.480;2022-09-30T05:39:46;17.77;;;12.90;;
51872;SDS011;52863;52.504;13.480;2022-09-30T05:42:16;19.20;;;12.70;;
51872;SDS011;52863;52.504;13.480;2022-09-30T05:44:43;18.13;;;13.23;;
51872;SDS011;52863;52.504;13.480;2022-09-30T05:47:10;17.60;;;12.63;;
51872;SDS011;52863;52.504;13.480;2022-09-30T05:49:40;20.13;;;13.17;;
51872;SDS011;52863;52.504;13.480;2022-09-30T05:52:10;27.23;;;14.40;;
51872;SDS011;52863;52.504;13.480;2022-09-30T05:54:38;20.17;;;13.43;;
51872;SDS011;52863;52.504;13.480;2022-09-30T05:57:05;21.27;;;14.20;;
51872;SDS011;52863;52.504;13.480;2022-09-30T05:59:32;24.73;;;14.67;;
51872;SDS011;52863;52.504;13.480;2022-09-30T06:01:59;20.37;;;13.80;;
51872;SDS011;52863;52.504;13.480;2022-09-30T06:04:27;19.80;;;13.93;;
51872;SDS011;52863;52.504;13.480;2022-09-30T06:06:54;21.43;;;14.20;;
51872;SDS011;52863;52.504;13.480;2022-09-30T06:09:22;21.57;;;13.60;;
51872;SDS011;52863;52.504;13.480;2022-09-30T06:11:49;21.63;;;13.97;;
51872;SDS011;52863;52.504;13.480;2022-09-30T06:14:16;23.33;;;15.13;;
51872;SDS011;52863;52.504;13.480;2022-09-30T06:16:44;22.37;;;14.27;;
51872;SDS011;52863;52.504;13.480;2022-09-30T06:19:12;26.07;;;14.70;;
51872;SDS011;52863;52.504;13.480;2022-09-30T06:21:39;20.53;;;14.47;;
51872;SDS011;52863;52.504;13.480;2022-09-30T06:24:06;22.73;;;15.07;;
51872;SDS011;52863;52.504;13.480;2022-09-30T06:26:38;21.33;;;14.70;;
51872;SDS011;52863;52.504;13.480;2022-09-30T06:29:08;21.10;;;14.37;;
51872;SDS011;52863;52.504;13.480;2022-09-30T06:31:36;28.60;;;15.60;;
51872;SDS011;52863;52.504;13.480;2022-09-30T06:34:03;20.20;;;15.27;;
51872;SDS011;52863;52.504;13.480;2022-09-30T06:36:31;20.70;;;14.67;;
51872;SDS011;52863;52.504;13.480;2022-09-30T06:38:58;21.60;;;15.13;;
51872;SDS011;52863;52.504;13.480;2022-09-30T06:41:25;19.67;;;14.73;;
51872;SDS011;52863;52.504;13.480;2022-09-30T06:43:54;19.30;;;13.67;;
51872;SDS011;52863;52.504;13.480;2022-09-30T06:46:31;17.73;;;13.67;;
51872;SDS011;52863;52.504;13.480;2022-09-30T06:49:02;16.10;;;13.13;;
51872;SDS011;52863;52.504;13.480;2022-09-30T06:51:39;16.80;;;13.30;;
51872;SDS011;52863;52.504;13.480;2022-09-30T06:54:06;20.57;;;13.87;;
51872;SDS011;52863;52.504;13.480;2022-09-30T06:56:33;19.87;;;13.23;;
51872;SDS011;52863;52.504;13.480;2022-09-30T06:59:02;15.50;;;12.57;;
51872;SDS011;52863;52.504;13.480;2022-09-30T07:01:29;15.00;;;12.77;;
51872;SDS011;52863;52.504;13.480;2022-09-30T07:03:56;14.27;;;11.60;;
51872;SDS011;52863;52.504;13.480;2022-09-30T07:06:23;16.57;;;12.17;;
51872;SDS011;52863;52.504;13.480;2022-09-30T07:08:52;18.27;;;13.13;;
51872;SDS011;52863;52.504;13.480;2022-09-30T07:11:21;17.67;;;12.40;;
51872;SDS011;52863;52.504;13.480;2022-09-30T07:13:48;20.20;;;12.37;;
51872;SDS011;52863;52.504;13.480;2022-09-30T07:16:17;14.07;;;12.53;;
51872;SDS011;52863;52.504;13.480;2022-09-30T07:18:45;17.77;;;12.60;;
51872;SDS011;52863;52.504;13.480;2022-09-30T07:21:13;14.07;;;11.77;;
51872;SDS011;52863;52.504;13.480;2022-09-30T07:23:40;14.37;;;11.23;;
51872;SDS011;52863;52.504;13.480;2022-09-30T07:26:10;13.47;;;11.70;;
51872;SDS011;52863;52.504;13.480;2022-09-30T07:28:37;13.63;;;11.57;;
51872;SDS011;52863;52.504;13.480;2022-09-30T07:31:06;15.57;;;12.00;;
51872;SDS011;52863;52.504;13.480;2022-09-30T07:33:57;17.27;;;10.73;;
51872;SDS011;52863;52.504;13.480;2022-09-30T07:36:24;16.63;;;11.50;;
51872;SDS011;52863;52.504;13.480;2022-09-30T07:38:58;15.77;;;10.80;;
51872;SDS011;52863;52.504;13.480;2022-09-30T07:41:29;13.80;;;10.67;;
51872;SDS011;52863;52.504;13.480;2022-09-30T07:43:57;19.20;;;11.13;;
51872;SDS011;52863;52.504;13.480;2022-09-30T07:46:25;21.00;;;13.03;;
51872;SDS011;52863;52.504;13.480;2022-09-30T07:48:54;19.57;;;12.63;;
51872;SDS011;52863;52.504;13.480;2022-09-30T07:51:26;19.23;;;12.17;;
51872;SDS011;52863;52.504;13.480;2022-09-30T07:53:58;20.13;;;11.23;;
51872;SDS011;52863;52.504;13.480;2022-09-30T07:56:30;14.93;;;10.47;;
51872;SDS011;52863;52.504;13.480;2022-09-30T07:59:17;16.97;;;10.80;;
51872;SDS011;52863;52.504;13.480;2022-09-30T08:01:45;14.87;;;10.67;;
51872;SDS011;52863;52.504;13.480;2022-09-30T08:04:12;15.80;;;9.90;;
51872;SDS011;52863;52.504;13.480;2022-09-30T08:06:41;13.07;;;10.17;;
51872;SDS011;52863;52.504;13.480;2022-09-30T08:09:11;15.73;;;9.57;;
51872;SDS011;52863;52.504;13.480;2022-09-30T08:11:38;11.87;;;10.13;;
51872;SDS011;52863;52.504;13.480;2022-09-30T08:14:05;20.67;;;10.67;;
51872;SDS011;52863;52.504;13.480;2022-09-30T08:16:32;15.93;;;9.70;;
51872;SDS011;52863;52.504;13.480;2022-09-30T08:19:00;13.07;;;9.47;;
51872;SDS011;52863;52.504;13.480;2022-09-30T08:21:27;11.60;;;8.70;;
51872;SDS011;52863;52.504;13.480;2022-09-30T08:23:54;11.20;;;8.70;;
51872;SDS011;52863;52.504;13.480;2022-09-30T08:26:21;12.07;;;8.27;;
51872;SDS011;52863;52.504;13.480;2022-09-30T08:28:49;11.10;;;8.37;;
51872;SDS011;52863;52.504;13.480;2022-09-30T08:31:16;9.83;;;7.97;;
51872;SDS011;52863;52.504;13.480;2022-09-30T08:33:47;10.80;;;8.37;;
51872;SDS011;52863;52.504;13.480;2022-09-30T08:36:15;10.60;;;7.10;;
51872;SDS011;52863;52.504;13.480;2022-09-30T08:38:45;12.93;;;7.43;;
51872;SDS011;52863;52.504;13.480;2022-09-30T08:41:16;9.90;;;7.23;;
51872;SDS011;52863;52.504;13.480;2022-09-30T08:44:29;7.97;;;7.03;;
51872;SDS011;52863;52.504;13.480;2022-09-30T08:47:09;10.23;;;6.87;;
51872;SDS011;52863;52.504;13.480;2022-09-30T08:50:01;8.13;;;7.10;;
51872;SDS011;52863;52.504;13.480;2022-09-30T08:52:36;9.67;;;6.60;;
51872;SDS011;52863;52.504;13.480;2022-09-30T08:55:21;7.33;;;6.57;;
51872;SDS011;52863;52.504;13.480;2022-09-30T08:58:02;6.70;;;5.90;;
51872;SDS011;52863;52.504;13.480;2022-09-30T09:00:38;8.47;;;6.87;;
51872;SDS011;52863;52.504;13.480;2022-09-30T09:03:10;9.70;;;6.57;;
51872;SDS011;52863;52.504;13.480;2022-09-30T09:05:40;8.60;;;6.73;;
51872;SDS011;52863;52.504;13.480;2022-09-30T09:08:19;8.10;;;6.40;;
51872;SDS011;52863;52.504;13.480;2022-09-30T09:10:55;6.87;;;6.17;;
51872;SDS011;52863;52.504;13.480;2022-09-30T09:13:33;8.57;;;6.80;;
51872;SDS011;52863;52.504;13.480;2022-09-30T16:34:05;5.13;;;3.33;;
51872;SDS011;52863;52.504;13.480;2022-09-30T16:36:32;4.53;;;3.20;;
51872;SDS011;52863;52.504;13.480;2022-09-30T16:39:02;3.47;;;2.70;;
51872;SDS011;52863;52.504;13.480;2022-09-30T16:41:29;2.90;;;2.57;;
51872;SDS011;52863;52.504;13.480;2022-09-30T16:43:57;8.53;;;5.40;;
51872;SDS011;52863;52.504;13.480;2022-09-30T16:46:24;7.53;;;3.97;;
51872;SDS011;52863;52.504;13.480;2022-09-30T16:48:54;5.27;;;3.10;;
51872;SDS011;52863;52.504;13.480;2022-09-30T16:51:21;4.30;;;3.10;;
51872;SDS011;52863;52.504;13.480;2022-09-30T16:53:49;4.23;;;3.47;;
51872;SDS011;52863;52.504;13.480;2022-09-30T16:56:21;6.17;;;3.83;;
51872;SDS011;52863;52.504;13.480;2022-09-30T16:58:48;4.50;;;3.30;;
51872;SDS011;52863;52.504;13.480;2022-09-30T17:01:17;7.50;;;3.60;;
51872;SDS011;52863;52.504;13.480;2022-09-30T17:03:45;5.47;;;3.47;;
51872;SDS011;52863;52.504;13.480;2022-09-30T17:06:14;6.43;;;3.67;;
51872;SDS011;52863;52.504;13.480;2022-09-30T17:08:47;4.57;;;3.57;;
51872;SDS011;52863;52.504;13.480;2022-09-30T17:11:14;6.43;;;3.60;;
51872;SDS011;52863;52.504;13.480;2022-09-30T17:13:44;6.77;;;4.50;;
51872;SDS011;52863;52.504;13.480;2022-09-30T17:16:12;8.07;;;4.83;;
51872;SDS011;52863;52.504;13.480;2022-09-30T17:18:40;7.83;;;4.37;;
51872;SDS011;52863;52.504;13.480;2022-09-30T17:21:07;6.50;;;4.30;;
51872;SDS011;52863;52.504;13.480;2022-09-30T17:23:35;8.10;;;6.07;;
51872;SDS011;52863;52.504;13.480;2022-09-30T17:26:02;8.37;;;5.90;;
51872;SDS011;52863;52.504;13.480;2022-09-30T17:28:30;5.73;;;5.13;;
51872;SDS011;52863;52.504;13.480;2022-09-30T17:30:59;8.63;;;5.83;;
51872;SDS011;52863;52.504;13.480;2022-09-30T17:33:31;7.70;;;5.87;;
51872;SDS011;52863;52.504;13.480;2022-09-30T17:35:59;5.93;;;4.30;;
51872;SDS011;52863;52.504;13.480;2022-09-30T17:38:30;5.60;;;4.40;;
51872;SDS011;52863;52.504;13.480;2022-09-30T17:41:01;5.93;;;4.07;;
51872;SDS011;52863;52.504;13.480;2022-09-30T17:43:48;5.47;;;4.10;;
51872;SDS011;52863;52.504;13.480;2022-09-30T17:46:37;9.87;;;5.37;;
51872;SDS011;52863;52.504;13.480;2022-09-30T17:49:08;6.77;;;4.50;;
51872;SDS011;52863;52.504;13.480;2022-09-30T17:51:38;5.47;;;4.37;;
51872;SDS011;52863;52.504;13.480;2022-09-30T17:54:05;6.63;;;4.50;;
51872;SDS011;52863;52.504;13.480;2022-09-30T17:56:35;5.77;;;4.63;;
51872;SDS011;52863;52.504;13.480;2022-09-30T17:59:04;7.43;;;4.60;;
51872;SDS011;52863;52.504;13.480;2022-09-30T18:01:39;7.23;;;4.83;;
51872;SDS011;52863;52.504;13.480;2022-09-30T18:04:12;8.63;;;4.87;;
51872;SDS011;52863;52.504;13.480;2022-09-30T18:06:41;7.13;;;4.40;;
51872;SDS011;52863;52.504;13.480;2022-09-30T18:09:11;7.03;;;5.20;;
51872;SDS011;52863;52.504;13.480;2022-09-30T18:11:38;6.37;;;4.90;;
51872;SDS011;52863;52.504;13.480;2022-09-30T18:14:12;16.13;;;11.43;;
51872;SDS011;52863;52.504;13.480;2022-09-30T18:16:43;14.83;;;9.13;;
51872;SDS011;52863;52.504;13.480;2022-09-30T18:19:10;11.03;;;9.03;;
51872;SDS011;52863;52.504;13.480;2022-09-30T18:21:44;10.97;;;8.40;;
51872;SDS011;52863;52.504;13.480;2022-09-30T18:24:11;11.23;;;8.47;;
51872;SDS011;52863;52.504;13.480;2022-09-30T18:27:11;9.70;;;6.40;;
51872;SDS011;52863;52.504;13.480;2022-09-30T18:29:38;8.27;;;6.47;;
51872;SDS011;52863;52.504;13.480;2022-09-30T18:32:09;8.27;;;6.47;;
51872;SDS011;52863;52.504;13.480;2022-09-30T18:34:37;9.43;;;6.70;;
51872;SDS011;52863;52.504;13.480;2022-09-30T18:37:05;8.67;;;7.03;;
51872;SDS011;52863;52.504;13.480;2022-09-30T18:39:34;10.97;;;6.63;;
51872;SDS011;52863;52.504;13.480;2022-09-30T18:42:02;10.07;;;6.93;;
51872;SDS011;52863;52.504;13.480;2022-09-30T18:44:33;10.83;;;7.47;;
51872;SDS011;52863;52.504;13.480;2022-09-30T18:47:03;9.23;;;7.20;;
51872;SDS011;52863;52.504;13.480;2022-09-30T18:49:32;8.10;;;6.43;;
51872;SDS011;52863;52.504;13.480;2022-09-30T18:51:59;10.10;;;7.40;;
51872;SDS011;52863;52.504;13.480;2022-09-30T18:54:27;10.83;;;7.03;;
51872;SDS011;52863;52.504;13.480;2022-09-30T18:56:59;10.03;;;7.33;;
51872;SDS011;52863;52.504;13.480;2022-09-30T18:59:37;8.83;;;7.67;;
51872;SDS011;52863;52.504;13.480;2022-09-30T19:02:06;9.63;;;8.07;;
51872;SDS011;52863;52.504;13.480;2022-09-30T19:08:26;10.97;;;8.50;;
51872;SDS011;52863;52.504;13.480;2022-09-30T19:10:53;13.13;;;9.27;;
51872;SDS011;52863;52.504;13.480;2022-09-30T19:13:25;20.87;;;15.17;;
51872;SDS011;52863;52.504;13.480;2022-09-30T19:16:00;19.37;;;13.67;;
51872;SDS011;52863;52.504;13.480;2022-09-30T19:18:30;16.47;;;12.00;;
51872;SDS011;52863;52.504;13.480;2022-09-30T19:21:05;15.30;;;12.10;;
51872;SDS011;52863;52.504;13.480;2022-09-30T19:23:33;17.93;;;11.77;;
51872;SDS011;52863;52.504;13.480;2022-09-30T19:26:03;19.87;;;13.13;;
51872;SDS011;52863;52.504;13.480;2022-09-30T19:28:30;16.73;;;12.17;;
51872;SDS011;52863;52.504;13.480;2022-09-30T19:31:08;15.23;;;12.07;;
51872;SDS011;52863;52.504;13.480;2022-09-30T19:33:42;15.53;;;12.63;;
51872;SDS011;52863;52.504;13.480;2022-09-30T19:36:22;15.53;;;12.53;;
51872;SDS011;52863;52.504;13.480;2022-09-30T19:39:09;14.40;;;12.13;;
51872;SDS011;52863;52.504;13.480;2022-09-30T19:41:37;16.00;;;11.27;;
51872;SDS011;52863;52.504;13.480;2022-09-30T19:44:04;15.67;;;12.40;;
51872;SDS011;52863;52.504;13.480;2022-09-30T19:46:48;14.70;;;11.87;;
51872;SDS011;52863;52.504;13.480;2022-09-30T19:49:19;12.93;;;11.13;;
51872;SDS011;52863;52.504;13.480;2022-09-30T19:51:48;14.80;;;11.80;;
51872;SDS011;52863;52.504;13.480;2022-09-30T19:54:19;15.70;;;12.73;;
51872;SDS011;52863;52.504;13.480;2022-09-30T19:57:06;18.23;;;12.60;;
51872;SDS011;52863;52.504;13.480;2022-09-30T19:59:39;13.37;;;11.00;;
51872;SDS011;52863;52.504;13.480;2022-09-30T20:02:21;18.13;;;12.40;;
51872;SDS011;52863;52.504;13.480;2022-09-30T20:04:50;17.83;;;13.03;;
51872;SDS011;52863;52.504;13.480;2022-09-30T20:07:19;15.63;;;12.27;;
51872;SDS011;52863;52.504;13.480;2022-09-30T20:09:46;12.70;;;11.40;;
51872;SDS011;52863;52.504;13.480;2022-09-30T20:12:14;14.27;;;11.27;;
51872;SDS011;52863;52.504;13.480;2022-09-30T20:14:43;14.67;;;11.27;;
51872;SDS011;52863;52.504;13.480;2022-09-30T20:17:29;14.30;;;11.20;;
51872;SDS011;52863;52.504;13.480;2022-09-30T20:19:57;12.97;;;11.33;;
51872;SDS011;52863;52.504;13.480;2022-09-30T20:22:58;12.63;;;10.57;;
51872;SDS011;52863;52.504;13.480;2022-09-30T20:25:26;16.10;;;11.10;;
51872;SDS011;52863;52.504;13.480;2022-09-30T20:27:54;15.47;;;12.03;;
51872;SDS011;52863;52.504;13.480;2022-09-30T20:30:21;14.57;;;11.17;;
51872;SDS011;52863;52.504;13.480;2022-09-30T20:32:51;14.23;;;11.37;;
51872;SDS011;52863;52.504;13.480;2022-09-30T20:35:18;16.83;;;12.50;;
51872;SDS011;52863;52.504;13.480;2022-09-30T20:37:50;17.73;;;12.33;;
51872;SDS011;52863;52.504;13.480;2022-09-30T20:40:18;17.53;;;12.90;;
51872;SDS011;52863;52.504;13.480;2022-09-30T20:42:46;15.03;;;12.93;;
51872;SDS011;52863;52.504;13.480;2022-09-30T20:45:13;17.37;;;12.23;;
51872;SDS011;52863;52.504;13.480;2022-09-30T20:47:45;17.20;;;13.63;;
51872;SDS011;52863;52.504;13.480;2022-09-30T20:50:22;17.30;;;12.93;;
51872;SDS011;52863;52.504;13.480;2022-09-30T20:53:01;17.83;;;13.30;;
51872;SDS011;52863;52.504;13.480;2022-09-30T20:55:34;15.70;;;13.60;;
51872;SDS011;52863;52.504;13.480;2022-09-30T20:58:09;19.47;;;14.40;;
51872;SDS011;52863;52.504;13.480;2022-09-30T21:00:38;20.70;;;14.20;;
51872;SDS011;52863;52.504;13.480;2022-09-30T21:03:06;18.50;;;15.17;;
51872;SDS011;52863;52.504;13.480;2022-09-30T21:05:35;20.73;;;14.20;;
51872;SDS011;52863;52.504;13.480;2022-09-30T21:08:06;20.43;;;14.67;;
51872;SDS011;52863;52.504;13.480;2022-09-30T21:10:35;16.87;;;13.83;;
51872;SDS011;52863;52.504;13.480;2022-09-30T21:13:06;18.07;;;14.43;;
51872;SDS011;52863;52.504;13.480;2022-09-30T21:15:34;22.57;;;16.43;;
51872;SDS011;52863;52.504;13.480;2022-09-30T21:18:01;20.63;;;16.33;;
51872;SDS011;52863;52.504;13.480;2022-09-30T21:20:28;20.83;;;16.03;;
51872;SDS011;52863;52.504;13.480;2022-09-30T21:22:56;21.50;;;17.27;;
51872;SDS011;52863;52.504;13.480;2022-09-30T21:25:23;20.77;;;16.33;;
51872;SDS011;52863;52.504;13.480;2022-09-30T21:27:50;21.33;;;16.00;;
51872;SDS011;52863;52.504;13.480;2022-09-30T21:30:17;22.20;;;16.73;;
51872;SDS011;52863;52.504;13.480;2022-09-30T21:32:45;20.17;;;16.47;;
51872;SDS011;52863;52.504;13.480;2022-09-30T21:35:13;22.23;;;17.13;;
51872;SDS011;52863;52.504;13.480;2022-09-30T21:37:40;20.97;;;16.20;;
51872;SDS011;52863;52.504;13.480;2022-09-30T21:40:09;22.47;;;16.43;;
51872;SDS011;52863;52.504;13.480;2022-09-30T21:42:36;21.87;;;17.10;;
51872;SDS011;52863;52.504;13.480;2022-09-30T21:45:03;19.90;;;16.33;;
51872;SDS011;52863;52.504;13.480;2022-09-30T21:47:31;19.63;;;16.57;;
51872;SDS011;52863;52.504;13.480;2022-09-30T21:49:58;22.27;;;18.17;;
51872;SDS011;52863;52.504;13.480;2022-09-30T21:52:26;23.17;;;16.47;;
51872;SDS011;52863;52.504;13.480;2022-09-30T21:55:00;21.53;;;17.77;;
51872;SDS011;52863;52.504;13.480;2022-09-30T21:57:42;27.87;;;18.80;;
51872;SDS011;52863;52.504;13.480;2022-09-30T22:00:10;25.73;;;18.10;;
51872;SDS011;52863;52.504;13.480;2022-09-30T22:02:37;24.07;;;17.73;;
51872;SDS011;52863;52.504;13.480;2022-09-30T22:05:05;25.87;;;17.23;;